Calumet — WDE3568 — position and weather

sailwx.info

Track history (hours):
 
Tides and Currents Weather Stations Pressure Air Temp Water Temp Dewpoint Dewpoint Depression Visibility Wind Speed Wind Dir Waves Ship Positions

Calumet

Owner: Grand River Navigation Company, Traverse City, MI. More information available from US FCC via Universal Licensing System and Coast Guard Vessel Documentation Center.

Last reported at 2015-May-04 06:00 UTC. Time now 2015-May-04 15:05 UTC.
Position N 43°30' W 082°24'.

Length 192 m; draft 6.3 m.

Type: Cargo ship. MMSI: 367132630.

Wind from 180 at 15 knots

Waves 0.5 meters (2 feet), 5 second period

Barometer 1018.9 mb
Air temperature 11.6 ° C
Visibility: greater than 5.4 NM

Date/timePositionNaut miles runAvg speedWind from/ knotsBaromVisibWave heightAir tempDewpointWater temp
2015-May-04 06:00N 43°30' W 082°24'103 8.6 180 / 151018.9 5.4 0.511.6
2015-May-03 18:00N 41°48' W 082°42'   190 / 101020.9 5.4 0.521.1
2015-Apr-27 19:00N 41°54' W 082°42'120 9.3 340 / 121019.9 5.4 0.5 8.3
2015-Apr-27 06:00N 43°54' W 082°30'122 4.4 010 / 131015.9 2.2 1.0 3.8
2015-Apr-26 02:31N 45°36' W 084°03'1212.4
2015-Apr-26 01:33N 45°41' W 084°19'1212.2
2015-Apr-26 00:33N 45°45' W 084°35'1212.1
2015-Apr-25 23:33N 45°49' W 084°52'1211.8
2015-Apr-25 22:33N 45°49' W 085°08'1212.1
2015-Apr-25 21:33N 45°38' W 085°17'1212.4
2015-Apr-25 20:33N 45°28' W 085°27'1212.3
2015-Apr-25 19:33N 45°18' W 085°38'1212.3
2015-Apr-25 18:33N 45°09' W 085°48'916.8
2015-Apr-25 18:00N 45°00' W 085°54'4 9.1 010 / 171015.5 5.4 0.5 2.2
2015-Apr-25 17:33N 44°60' W 085°60'1212.0
2015-Apr-25 16:33N 44°53' W 086°13'87 3.9
2015-Apr-24 18:00N 43°42' W 087°24'6012.0 120 / 51020.6 5.4 0.5 3.3
2015-Apr-24 13:00N 44°24' W 086°24'3322.9 170 / 101019.9 0.5 1.6
2015-Apr-24 11:33N 44°56' W 086°36'1212.4
2015-Apr-24 10:33N 45°07' W 086°29'1212.4
2015-Apr-24 09:33N 45°18' W 086°21'1312.5
2015-Apr-24 08:33N 45°30' W 086°14'1212.3
2015-Apr-24 07:33N 45°41' W 086°06'1212.3
2015-Apr-24 06:33N 45°47' W 085°51'1016.8
2015-Apr-24 06:00N 45°54' W 085°42'   250 / 71019.6 5.4 0.5-0.0
Track history (hours):
 
Tides and Currents Weather Stations Pressure Air Temp Water Temp Dewpoint Dewpoint Depression Visibility Wind Speed Wind Dir Waves Ship Positions

Calumet

Owner: Grand River Navigation Company, Traverse City, MI. More information available from US FCC via Universal Licensing System and Coast Guard Vessel Documentation Center.

Last reported at 2015-May-04 06:00 UTC. Time now 2015-May-04 15:05 UTC.
Position N 43°30' W 082°24'.

Length 192 m; draft 6.3 m.

Type: Cargo ship. MMSI: 367132630.

Wind from 180 at 15 knots

Waves 0.5 meters (2 feet), 5 second period

Barometer 1018.9 mb
Air temperature 11.6 ° C
Visibility: greater than 5.4 NM

Date/timePositionNaut miles runAvg speedWind from/ knotsBaromVisibWave heightAir tempDewpointWater temp
2015-May-04 06:00N 43°30' W 082°24'103 8.6 180 / 151018.9 5.4 0.511.6
2015-May-03 18:00N 41°48' W 082°42'   190 / 101020.9 5.4 0.521.1
2015-Apr-27 19:00N 41°54' W 082°42'120 9.3 340 / 121019.9 5.4 0.5 8.3
2015-Apr-27 06:00N 43°54' W 082°30'122 4.4 010 / 131015.9 2.2 1.0 3.8
2015-Apr-26 02:31N 45°36' W 084°03'1212.4
2015-Apr-26 01:33N 45°41' W 084°19'1212.2
2015-Apr-26 00:33N 45°45' W 084°35'1212.1
2015-Apr-25 23:33N 45°49' W 084°52'1211.8
2015-Apr-25 22:33N 45°49' W 085°08'1212.1
2015-Apr-25 21:33N 45°38' W 085°17'1212.4
2015-Apr-25 20:33N 45°28' W 085°27'1212.3
2015-Apr-25 19:33N 45°18' W 085°38'1212.3
2015-Apr-25 18:33N 45°09' W 085°48'916.8
2015-Apr-25 18:00N 45°00' W 085°54'4 9.1 010 / 171015.5 5.4 0.5 2.2
2015-Apr-25 17:33N 44°60' W 085°60'1212.0
2015-Apr-25 16:33N 44°53' W 086°13'87 3.9
2015-Apr-24 18:00N 43°42' W 087°24'6012.0 120 / 51020.6 5.4 0.5 3.3
2015-Apr-24 13:00N 44°24' W 086°24'3322.9 170 / 101019.9 0.5 1.6
2015-Apr-24 11:33N 44°56' W 086°36'1212.4
2015-Apr-24 10:33N 45°07' W 086°29'1212.4
2015-Apr-24 09:33N 45°18' W 086°21'1312.5
2015-Apr-24 08:33N 45°30' W 086°14'1212.3
2015-Apr-24 07:33N 45°41' W 086°06'1212.3
2015-Apr-24 06:33N 45°47' W 085°51'1016.8
2015-Apr-24 06:00N 45°54' W 085°42'   250 / 71019.6 5.4 0.5-0.0

Dump ship's entire track history